createdAt,value
2016-12-17T00:00:39.834Z,-2.64
2016-12-17T00:01:49.626Z,-2.71
2016-12-17T00:02:59.507Z,-2.65
2016-12-17T00:04:09.320Z,-2.64
2016-12-17T00:05:19.115Z,-2.68
2016-12-17T00:06:28.903Z,-2.65
2016-12-17T00:07:38.473Z,-2.58
2016-12-17T00:08:48.325Z,-2.57
2016-12-17T00:09:58.215Z,-2.44
2016-12-17T00:11:08.082Z,-2.46
2016-12-17T00:12:17.593Z,-2.34
2016-12-17T00:13:27.387Z,-2.46
2016-12-17T00:14:37.189Z,-2.44
2016-12-17T00:15:47.009Z,-2.42
2016-12-17T00:16:56.486Z,-2.44
2016-12-17T00:18:05.678Z,-2.47
2016-12-17T00:19:14.910Z,-2.54
2016-12-17T00:20:24.735Z,-2.51
2016-12-17T00:21:34.396Z,-2.5
2016-12-17T00:22:44.220Z,-2.57
2016-12-17T00:23:53.693Z,-2.5
2016-12-17T00:25:02.867Z,-2.51
2016-12-17T00:26:12.689Z,-2.57
2016-12-17T00:27:22.283Z,-2.51
2016-12-17T00:28:31.770Z,-2.51
2016-12-17T00:29:41.587Z,-2.54
2016-12-17T00:30:51.484Z,-2.47
2016-12-17T00:32:01.308Z,-2.5
2016-12-17T00:33:11.186Z,-2.52
2016-12-17T00:34:20.975Z,-2.57
2016-12-17T00:35:30.793Z,-2.55
2016-12-17T00:36:40.689Z,-2.51
2016-12-17T00:37:50.504Z,-2.55
2016-12-17T00:39:00.358Z,-2.52
2016-12-17T00:40:09.952Z,-2.52
2016-12-17T00:41:19.791Z,-2.5
2016-12-17T00:42:29.590Z,-2.52
2016-12-17T00:43:39.381Z,-2.47
2016-12-17T00:44:48.880Z,-2.58
2016-12-17T00:45:58.386Z,-2.5
2016-12-17T00:47:08.191Z,-2.57
2016-12-17T00:48:17.696Z,-2.61
2016-12-17T00:49:27.485Z,-2.52
2016-12-17T00:50:36.954Z,-2.51
2016-12-17T00:51:46.162Z,-2.52
2016-12-17T00:52:55.639Z,-2.54
2016-12-17T00:54:05.477Z,-2.54
2016-12-17T00:55:14.672Z,-2.47
2016-12-17T00:56:24.467Z,-2.51
2016-12-17T00:57:34.309Z,-2.51
2016-12-17T00:58:44.256Z,-2.46
2016-12-17T00:59:54.092Z,-2.65
2016-12-17T01:01:03.372Z,-2.68
2016-12-17T01:02:13.205Z,-2.7
2016-12-17T01:03:22.995Z,-2.65
2016-12-17T01:04:32.816Z,-2.65
2016-12-17T01:05:42.599Z,-2.65
2016-12-17T01:06:52.398Z,-2.64
2016-12-17T01:08:01.623Z,-2.64
2016-12-17T01:09:10.790Z,-2.6
2016-12-17T01:10:20.654Z,-2.62
2016-12-17T01:11:30.490Z,-2.65
2016-12-17T01:12:39.962Z,-2.71
2016-12-17T01:13:49.938Z,-2.79
2016-12-17T01:14:59.728Z,-2.79
2016-12-17T01:16:09.240Z,-2.74
2016-12-17T01:17:18.429Z,-2.79
2016-12-17T01:18:28.238Z,-2.77
2016-12-17T01:19:37.738Z,-2.8
2016-12-17T01:20:47.227Z,-2.8
2016-12-17T01:21:57.015Z,-2.76
2016-12-17T01:23:06.804Z,-2.74
2016-12-17T01:24:16.589Z,-2.8
2016-12-17T01:25:26.416Z,-2.89
2016-12-17T01:26:36.225Z,-2.83
2016-12-17T01:27:45.807Z,-2.92
2016-12-17T01:28:55.636Z,-2.94
2016-12-17T01:30:05.109Z,-2.99
2016-12-17T01:31:14.585Z,-2.99
2016-12-17T01:32:24.465Z,-2.91
2016-12-17T01:33:34.245Z,-2.8
2016-12-17T01:34:43.721Z,-2.91
2016-12-17T01:35:53.237Z,-2.94
2016-12-17T01:37:03.023Z,-2.97
2016-12-17T01:38:12.809Z,-2.84
2016-12-17T01:39:22.373Z,-2.88
2016-12-17T01:40:31.920Z,-2.98
2016-12-17T01:41:41.411Z,-2.94
2016-12-17T01:42:51.196Z,-2.91
2016-12-17T01:44:00.671Z,-2.89
2016-12-17T01:45:10.590Z,-2.97
2016-12-17T01:46:20.384Z,-2.84
2016-12-17T01:47:29.862Z,-2.95
2016-12-17T01:48:39.337Z,-2.98
2016-12-17T01:49:48.814Z,-2.86
2016-12-17T01:50:58.321Z,-2.89
2016-12-17T01:52:08.219Z,-2.94
2016-12-17T01:53:17.691Z,-2.92
2016-12-17T01:54:26.869Z,-2.97
2016-12-17T01:55:36.664Z,-2.95
2016-12-17T01:56:46.474Z,-2.86
2016-12-17T01:57:55.962Z,-2.88
2016-12-17T01:59:05.765Z,-2.94
2016-12-17T02:00:15.558Z,-2.83
2016-12-17T02:01:25.398Z,-2.84
2016-12-17T02:02:35.329Z,-2.84
2016-12-17T02:03:44.799Z,-2.92
2016-12-17T02:04:54.576Z,-2.88
2016-12-17T02:06:03.735Z,-2.89
2016-12-17T02:07:12.897Z,-2.74
2016-12-17T02:08:22.720Z,-2.64
2016-12-17T02:09:32.215Z,-2.7
2016-12-17T02:10:41.098Z,-2.64
2016-12-17T02:11:50.577Z,-2.62
2016-12-17T02:13:00.390Z,-2.6
2016-12-17T02:14:10.190Z,-2.62
2016-12-17T02:15:19.998Z,-2.61
2016-12-17T02:16:29.703Z,-2.76
2016-12-17T02:17:39.505Z,-2.76
2016-12-17T02:18:48.982Z,-2.76
2016-12-17T02:19:58.525Z,-2.7
2016-12-17T02:21:07.991Z,-2.65
2016-12-17T02:22:17.765Z,-2.64
2016-12-17T02:23:27.561Z,-2.7
2016-12-17T02:24:37.082Z,-2.64
2016-12-17T02:25:46.939Z,-2.62
2016-12-17T02:26:56.714Z,-2.62
2016-12-17T02:28:06.218Z,-2.81
2016-12-17T02:29:15.383Z,-2.74
2016-12-17T02:30:25.170Z,-2.77
2016-12-17T02:31:34.639Z,-2.81
2016-12-17T02:32:44.126Z,-2.79
2016-12-17T02:33:53.983Z,-2.83
2016-12-17T02:35:03.784Z,-2.89
2016-12-17T02:36:13.566Z,-2.95
2016-12-17T02:37:23.378Z,-2.94
2016-12-17T02:38:32.875Z,-2.92
2016-12-17T02:39:42.770Z,-2.88
2016-12-17T02:40:52.258Z,-2.97
2016-12-17T02:42:01.831Z,-2.92
2016-12-17T02:43:11.623Z,-2.99
2016-12-17T02:44:21.406Z,-3.01
2016-12-17T02:45:30.912Z,-3.13
2016-12-17T02:46:40.102Z,-3.15
2016-12-17T02:47:49.896Z,-3.22
2016-12-17T02:48:59.692Z,-3.12
2016-12-17T02:50:09.181Z,-3.12
2016-12-17T02:51:19.083Z,-3.19
2016-12-17T02:52:28.941Z,-3.13
2016-12-17T02:53:38.780Z,-3.19
2016-12-17T02:54:48.595Z,-3.12
2016-12-17T02:55:58.113Z,-3.13
2016-12-17T02:57:07.609Z,-3.19
2016-12-17T02:58:17.088Z,-3.22
2016-12-17T02:59:26.930Z,-3.34
2016-12-17T03:00:36.542Z,-3.28
2016-12-17T03:01:46.318Z,-3.33
2016-12-17T03:02:56.104Z,-3.19
2016-12-17T03:04:05.940Z,-3.27
2016-12-17T03:05:15.774Z,-3.28
2016-12-17T03:06:25.556Z,-3.28
2016-12-17T03:07:35.364Z,-3.28
2016-12-17T03:08:45.260Z,-3.28
2016-12-17T03:09:55.198Z,-3.28
2016-12-17T03:11:05.009Z,-3.38
2016-12-17T03:12:14.818Z,-3.43
2016-12-17T03:13:24.309Z,-3.45
2016-12-17T03:14:34.112Z,-3.37
2016-12-17T03:15:43.941Z,-3.38
2016-12-17T03:16:53.439Z,-3.43
2016-12-17T03:18:03.216Z,-3.38
2016-12-17T03:19:13.025Z,-3.31
2016-12-17T03:20:22.670Z,-3.33
2016-12-17T03:21:32.471Z,-3.38
2016-12-17T03:22:41.960Z,-3.33
2016-12-17T03:23:51.420Z,-3.34
2016-12-17T03:25:01.270Z,-3.33
2016-12-17T03:26:11.049Z,-3.34
2016-12-17T03:27:20.539Z,-3.4
2016-12-17T03:28:29.803Z,-3.31
2016-12-17T03:29:39.620Z,-3.4
2016-12-17T03:30:49.432Z,-3.37
2016-12-17T03:31:59.232Z,-3.37
2016-12-17T03:33:08.820Z,-3.3
2016-12-17T03:34:18.288Z,-3.3
2016-12-17T03:35:28.076Z,-3.4
2016-12-17T03:36:37.577Z,-3.33
2016-12-17T03:37:46.755Z,-3.43
2016-12-17T03:38:56.277Z,-3.52
2016-12-17T03:40:05.749Z,-3.41
2016-12-17T03:41:15.533Z,-3.46
2016-12-17T03:42:25.034Z,-3.35
2016-12-17T03:43:34.233Z,-3.41
2016-12-17T03:44:43.728Z,-3.38
2016-12-17T03:45:53.269Z,-3.38
2016-12-17T03:47:02.751Z,-3.37
2016-12-17T03:48:12.530Z,-3.35
2016-12-17T03:49:21.721Z,-3.38
2016-12-17T03:50:31.201Z,-3.43
2016-12-17T03:51:40.977Z,-3.35
2016-12-17T03:52:50.763Z,-3.22
2016-12-17T03:54:00.538Z,-3.37
2016-12-17T03:55:10.314Z,-3.41
2016-12-17T03:56:19.178Z,-3.45
2016-12-17T03:57:28.678Z,-3.45
2016-12-17T03:58:38.488Z,-3.48
2016-12-17T03:59:48.376Z,-3.49
2016-12-17T04:00:58.158Z,-3.45
2016-12-17T04:02:07.962Z,-3.4
2016-12-17T04:03:17.470Z,-3.4
2016-12-17T04:04:26.991Z,-3.37
2016-12-17T04:05:36.772Z,-3.43
2016-12-17T04:06:46.551Z,-3.34
2016-12-17T04:07:56.337Z,-3.35
2016-12-17T04:09:06.200Z,-3.3
2016-12-17T04:10:15.667Z,-3.23
2016-12-17T04:11:25.457Z,-3.35
2016-12-17T04:12:35.303Z,-3.22
2016-12-17T04:13:45.089Z,-3.26
2016-12-17T04:14:54.979Z,-3.17
2016-12-17T04:16:04.765Z,-3.22
2016-12-17T04:17:14.578Z,-3.2
2016-12-17T04:18:24.433Z,-3.16
2016-12-17T04:19:34.241Z,-3.04
2016-12-17T04:20:43.413Z,-3.01
2016-12-17T04:21:53.239Z,-3.09
2016-12-17T04:23:02.730Z,-3.05
2016-12-17T04:24:12.523Z,-3.01
2016-12-17T04:25:22.322Z,-3.02
2016-12-17T04:26:31.833Z,-2.99
2016-12-17T04:27:41.675Z,-2.99
2016-12-17T04:28:51.145Z,-2.92
2016-12-17T04:30:00.937Z,-2.95
2016-12-17T04:31:10.714Z,-2.92
2016-12-17T04:32:20.519Z,-2.84
2016-12-17T04:33:30.339Z,-2.92
2016-12-17T04:34:39.820Z,-2.8
2016-12-17T04:35:49.613Z,-2.81
2016-12-17T04:36:59.392Z,-2.74
2016-12-17T04:38:09.208Z,-2.62
2016-12-17T04:39:18.979Z,-2.74
2016-12-17T04:40:28.778Z,-2.65
2016-12-17T04:41:37.939Z,-2.7
2016-12-17T04:42:47.435Z,-2.62
2016-12-17T04:43:57.067Z,-2.65
2016-12-17T04:45:06.857Z,-2.79
2016-12-17T04:46:16.626Z,-2.77
2016-12-17T04:47:26.111Z,-2.74
2016-12-17T04:48:35.578Z,-2.79
2016-12-17T04:49:45.085Z,-2.89
2016-12-17T04:50:54.724Z,-2.83
2016-12-17T04:52:04.515Z,-2.84
2016-12-17T04:53:13.677Z,-2.89
2016-12-17T04:54:23.462Z,-2.84
2016-12-17T04:56:04.817Z,-2.88
2016-12-17T04:57:14.393Z,-2.74
2016-12-17T04:58:24.175Z,-2.76
2016-12-17T04:59:33.067Z,-2.77
2016-12-17T05:00:42.778Z,-2.71
2016-12-17T05:01:51.935Z,-2.79
2016-12-17T05:03:01.105Z,-2.79
2016-12-17T05:04:10.993Z,-2.68
2016-12-17T05:05:20.886Z,-2.65
2016-12-17T05:06:30.689Z,-2.65
2016-12-17T05:07:40.492Z,-2.74
2016-12-17T05:08:49.963Z,-2.64
2016-12-17T05:09:59.491Z,-2.65
2016-12-17T05:11:09.366Z,-2.65
2016-12-17T05:12:19.168Z,-2.7
2016-12-17T05:13:28.973Z,-2.68
2016-12-17T05:14:38.514Z,-2.68
2016-12-17T05:15:48.304Z,-2.64
2016-12-17T05:16:58.161Z,-2.74
2016-12-17T05:18:07.938Z,-2.73
2016-12-17T05:19:17.409Z,-2.6
2016-12-17T05:20:26.920Z,-2.57
2016-12-17T05:21:36.988Z,-2.55
2016-12-17T05:22:46.495Z,-2.52
2016-12-17T05:23:56.314Z,-2.58
2016-12-17T05:25:06.025Z,-2.51
2016-12-17T05:26:15.542Z,-2.5
2016-12-17T05:27:25.348Z,-2.52
2016-12-17T05:28:34.918Z,-2.51
2016-12-17T05:29:44.413Z,-2.54
2016-12-17T05:30:54.200Z,-2.64
2016-12-17T05:32:03.695Z,-2.71
2016-12-17T05:33:13.604Z,-2.64
2016-12-17T05:34:23.152Z,-2.71
2016-12-17T05:35:32.612Z,-2.68
2016-12-17T05:36:42.405Z,-2.77
2016-12-17T05:37:51.958Z,-2.74
2016-12-17T05:39:01.740Z,-2.8
2016-12-17T05:40:11.573Z,-2.76
2016-12-17T05:41:21.350Z,-2.8
2016-12-17T05:42:30.854Z,-2.86
2016-12-17T05:43:40.347Z,-2.89
2016-12-17T05:44:49.842Z,-2.76
2016-12-17T05:45:59.026Z,-2.76
2016-12-17T05:47:08.810Z,-2.83
2016-12-17T05:48:18.659Z,-2.77
2016-12-17T05:49:28.154Z,-2.8
2016-12-17T05:50:37.326Z,-2.91
2016-12-17T05:51:46.840Z,-2.88
2016-12-17T05:52:56.308Z,-2.79
2016-12-17T05:54:06.294Z,-2.79
2016-12-17T05:55:16.098Z,-2.77
2016-12-17T05:56:25.362Z,-2.74
2016-12-17T05:57:34.835Z,-2.76
2016-12-17T05:58:44.331Z,-2.68
2016-12-17T05:59:54.231Z,-2.79
2016-12-17T06:01:03.396Z,-2.8
2016-12-17T06:02:12.908Z,-2.81
2016-12-17T06:03:22.680Z,-2.79
2016-12-17T06:04:32.348Z,-2.77
2016-12-17T06:05:42.147Z,-2.77
2016-12-17T06:06:51.612Z,-2.76
2016-12-17T06:08:01.088Z,-2.76
2016-12-17T06:09:10.614Z,-2.79
2016-12-17T06:10:20.195Z,-2.88
2016-12-17T06:11:29.690Z,-2.76
2016-12-17T06:12:39.501Z,-2.77
2016-12-17T06:13:48.990Z,-2.8
2016-12-17T06:14:58.261Z,-2.74
2016-12-17T06:16:08.053Z,-2.62
2016-12-17T06:17:17.966Z,-2.62
2016-12-17T06:18:27.142Z,-2.61
2016-12-17T06:19:36.619Z,-2.68
2016-12-17T06:20:46.429Z,-2.71
2016-12-17T06:21:56.211Z,-2.61
2016-12-17T06:23:05.733Z,-2.61
2016-12-17T06:24:15.204Z,-2.7
2016-12-17T06:25:24.985Z,-2.62
2016-12-17T06:26:34.475Z,-2.65
2016-12-17T06:27:43.648Z,-2.61
2016-12-17T06:28:53.279Z,-2.57
2016-12-17T06:30:03.067Z,-2.61
2016-12-17T06:31:12.854Z,-2.51
2016-12-17T06:32:22.723Z,-2.44
2016-12-17T06:33:32.532Z,-2.4
2016-12-17T06:34:42.319Z,-2.39
2016-12-17T06:35:52.156Z,-2.4
2016-12-17T06:37:01.811Z,-2.4
2016-12-17T06:38:11.594Z,-2.37
2016-12-17T06:39:21.061Z,-2.43
2016-12-17T06:40:30.852Z,-2.39
2016-12-17T06:41:40.645Z,-2.37
2016-12-17T06:42:50.476Z,-2.46
2016-12-17T06:44:00.295Z,-2.51
2016-12-17T06:45:10.252Z,-2.46
2016-12-17T06:46:20.059Z,-2.46
2016-12-17T06:47:29.260Z,-2.44
2016-12-17T06:48:39.050Z,-2.47
2016-12-17T06:49:48.520Z,-2.39
2016-12-17T06:50:58.375Z,-2.44
2016-12-17T06:52:07.920Z,-2.34
2016-12-17T06:53:17.773Z,-2.25
2016-12-17T06:54:27.550Z,-2.26
2016-12-17T06:55:37.345Z,-2.33
2016-12-17T06:56:46.869Z,-2.29
2016-12-17T06:57:56.357Z,-2.32
2016-12-17T06:59:06.151Z,-2.28
2016-12-17T07:00:15.401Z,-2.19
2016-12-17T07:01:25.189Z,-2.21
2016-12-17T07:02:34.439Z,-2.26
2016-12-17T07:03:44.253Z,-2.22
2016-12-17T07:04:53.765Z,-2.24
2016-12-17T07:06:03.553Z,-2.21
2016-12-17T07:07:13.336Z,-2.12
2016-12-17T07:08:23.116Z,-2.15
2016-12-17T07:09:32.594Z,-2.14
2016-12-17T07:10:42.461Z,-2
2016-12-17T07:11:51.935Z,-2.12
2016-12-17T07:13:01.503Z,-2.08
2016-12-17T07:14:11.000Z,-2.18
2016-12-17T07:15:20.796Z,-2.26
2016-12-17T07:16:30.274Z,-2.24
2016-12-17T07:17:39.807Z,-2.25
2016-12-17T07:18:48.991Z,-2.28
2016-12-17T07:19:58.804Z,-2.19
2016-12-17T07:21:08.278Z,-2.24
2016-12-17T07:22:17.749Z,-2.22
2016-12-17T07:23:27.608Z,-2.24
2016-12-17T07:24:37.099Z,-2.15
2016-12-17T07:25:46.585Z,-2.22
2016-12-17T07:26:55.753Z,-2.1
2016-12-17T07:28:05.536Z,-2.18
2016-12-17T07:29:15.058Z,-2.04
2016-12-17T07:30:24.860Z,-2.1
2016-12-17T07:31:34.673Z,-2.04
2016-12-17T07:32:44.450Z,-2.08
2016-12-17T07:33:54.278Z,-1.96
2016-12-17T07:35:03.797Z,-2.07
2016-12-17T07:36:13.303Z,-2.15
2016-12-17T07:37:22.468Z,-2.12
2016-12-17T07:38:32.265Z,-2.18
2016-12-17T07:39:41.440Z,-2.18
2016-12-17T07:40:51.084Z,-2.24
2016-12-17T07:42:00.885Z,-2.24
2016-12-17T07:43:10.663Z,-2.16
2016-12-17T07:44:20.450Z,-2.21
2016-12-17T07:45:29.998Z,-2.24
2016-12-17T07:46:39.491Z,-2.19
2016-12-17T07:47:48.672Z,-2.24
2016-12-17T07:48:58.449Z,-2.24
2016-12-17T07:50:07.924Z,-2.19
2016-12-17T07:51:17.934Z,-2.22
2016-12-17T07:52:27.746Z,-2.19
2016-12-17T07:53:37.566Z,-2.16
2016-12-17T07:54:47.381Z,-2.07
2016-12-17T07:55:56.862Z,-2.01
2016-12-17T07:57:06.860Z,-2.06
2016-12-17T07:58:16.385Z,-2.03
2016-12-17T07:59:25.900Z,-1.97
2016-12-17T08:00:35.381Z,-1.94
2016-12-17T08:01:45.203Z,-1.94
2016-12-17T08:02:54.997Z,-1.9
2016-12-17T08:04:04.808Z,-1.9
2016-12-17T08:05:14.358Z,-1.85
2016-12-17T08:06:24.159Z,-1.8
2016-12-17T08:07:33.754Z,-1.83
2016-12-17T08:08:42.915Z,-1.72
2016-12-17T08:09:52.848Z,-1.76
2016-12-17T08:11:02.630Z,-1.72
2016-12-17T08:12:12.167Z,-1.75
2016-12-17T08:13:21.662Z,-1.62
2016-12-17T08:14:31.188Z,-1.64
2016-12-17T08:15:40.972Z,-1.62
2016-12-17T08:16:50.771Z,-1.47
2016-12-17T08:18:00.239Z,-1.43
2016-12-17T08:19:09.093Z,-1.44
2016-12-17T08:20:18.975Z,-1.42
2016-12-17T08:21:28.158Z,-1.36
2016-12-17T08:22:38.032Z,-1.29
2016-12-17T08:23:47.569Z,-1.23
2016-12-17T08:24:57.560Z,-1.2
2016-12-17T08:26:07.053Z,-1.25
2016-12-17T08:27:16.845Z,-1.07
2016-12-17T08:28:26.630Z,-1.13
2016-12-17T08:29:36.419Z,-1
2016-12-17T08:30:46.225Z,-0.98
2016-12-17T08:31:55.448Z,-0.91
2016-12-17T08:33:05.079Z,-0.89
2016-12-17T08:34:14.910Z,-0.98
2016-12-17T08:35:24.704Z,-0.84
2016-12-17T08:36:34.551Z,-0.78
2016-12-17T08:37:44.380Z,-0.88
2016-12-17T08:38:54.171Z,-0.91
2016-12-17T08:40:03.665Z,-0.92
2016-12-17T08:41:13.143Z,-0.87
2016-12-17T08:42:22.940Z,-0.82
2016-12-17T08:43:32.169Z,-0.84
2016-12-17T08:44:41.379Z,-0.77
2016-12-17T08:45:51.180Z,-0.74
2016-12-17T08:47:00.735Z,-0.71
2016-12-17T08:48:10.258Z,-0.6
2016-12-17T08:49:19.766Z,-0.63
2016-12-17T08:50:29.290Z,-0.53
2016-12-17T08:51:38.767Z,-0.59
2016-12-17T08:52:48.607Z,-0.64
2016-12-17T08:53:58.101Z,-0.59
2016-12-17T08:55:07.646Z,-0.52
2016-12-17T08:56:17.434Z,-0.59
2016-12-17T08:57:27.214Z,-0.46
2016-12-17T08:58:36.991Z,-0.48
2016-12-17T08:59:46.538Z,-0.43
2016-12-17T09:00:56.335Z,-0.48
2016-12-17T09:02:05.878Z,-0.35
2016-12-17T09:03:15.806Z,-0.35
2016-12-17T09:04:25.670Z,-0.33
2016-12-17T09:05:35.465Z,-0.31
2016-12-17T09:06:44.974Z,-0.25
2016-12-17T09:07:54.757Z,-0.2
2016-12-17T09:09:04.270Z,-0.22
2016-12-17T09:10:13.745Z,-0.22
2016-12-17T09:11:23.237Z,-0.2
2016-12-17T09:12:33.026Z,-0.22
2016-12-17T09:13:42.866Z,-0.13
2016-12-17T09:14:52.719Z,-0.15
2016-12-17T09:16:02.214Z,-0.1
2016-12-17T09:17:11.765Z,-0.01
2016-12-17T09:18:21.283Z,-0.16
2016-12-17T09:19:31.096Z,-0.04
2016-12-17T09:20:40.882Z,-0.02
2016-12-17T09:21:50.674Z,-0.06
2016-12-17T09:22:59.927Z,-0.02
2016-12-17T09:24:09.545Z,-0.04
2016-12-17T09:25:19.342Z,-0.01
2016-12-17T09:26:28.819Z,0.01
2016-12-17T09:27:38.629Z,0.02
2016-12-17T09:28:48.149Z,0.01
2016-12-17T09:29:57.628Z,0.09
2016-12-17T09:31:07.094Z,0.06
2016-12-17T09:32:16.889Z,-0.02
2016-12-17T09:33:26.752Z,-0.02
2016-12-17T09:34:35.910Z,-0.12
2016-12-17T09:35:45.117Z,-0.15
2016-12-17T09:36:54.914Z,-0.13
2016-12-17T09:38:04.415Z,-0.37
2016-12-17T09:39:13.619Z,-0.41
2016-12-17T09:40:23.429Z,-0.59
2016-12-17T09:41:32.914Z,-0.59
2016-12-17T09:42:42.436Z,-0.43
2016-12-17T09:43:52.370Z,-0.34
2016-12-17T09:45:02.228Z,-0.35
2016-12-17T09:46:12.037Z,-0.3
2016-12-17T09:47:21.838Z,-0.23
2016-12-17T09:48:31.626Z,-0.31
2016-12-17T09:49:41.127Z,-0.17
2016-12-17T09:50:50.984Z,-0.12
2016-12-17T09:52:00.803Z,-0.17
2016-12-17T09:53:10.585Z,0.05
2016-12-17T09:54:20.395Z,0.17
2016-12-17T09:55:29.905Z,0.38
2016-12-17T09:56:39.717Z,0.75
2016-12-17T09:57:49.237Z,0.99
2016-12-17T09:58:58.734Z,1.3
2016-12-17T10:00:08.563Z,1.53
2016-12-17T10:01:18.118Z,1.8
2016-12-17T10:02:27.580Z,2.1
2016-12-17T10:03:37.383Z,2.37
2016-12-17T10:04:47.298Z,2.77
2016-12-17T10:05:57.160Z,3.11
2016-12-17T10:07:06.645Z,3.44
2016-12-17T10:08:16.134Z,3.67
2016-12-17T10:09:25.609Z,4.05
2016-12-17T10:10:35.086Z,4.34
2016-12-17T10:11:45.005Z,4.59
2016-12-17T10:12:54.797Z,4.95
2016-12-17T10:14:04.340Z,5.22
2016-12-17T10:15:13.880Z,5.4
2016-12-17T10:16:23.357Z,5.58
2016-12-17T10:17:32.838Z,5.74
2016-12-17T10:18:42.620Z,5.93
2016-12-17T10:19:51.841Z,6.12
2016-12-17T10:21:01.651Z,6.24
2016-12-17T10:22:11.478Z,6.41
2016-12-17T10:23:21.270Z,6.48
2016-12-17T10:24:31.211Z,6.54
2016-12-17T10:25:41.004Z,6.72
2016-12-17T10:26:50.854Z,6.79
2016-12-17T10:28:00.506Z,7.05
2016-12-17T10:29:10.300Z,7.13
2016-12-17T10:30:19.810Z,7.13
2016-12-17T10:31:29.635Z,7.24
2016-12-17T10:32:39.136Z,7.31
2016-12-17T10:33:48.677Z,7.51
2016-12-17T10:34:58.152Z,7.59
2016-12-17T10:36:07.972Z,7.76
2016-12-17T10:37:17.475Z,7.77
2016-12-17T10:38:26.987Z,7.74
2016-12-17T10:39:36.779Z,7.62
2016-12-17T10:40:46.641Z,7.73
2016-12-17T10:41:56.144Z,7.77
2016-12-17T10:43:05.983Z,7.8
2016-12-17T10:44:15.520Z,7.7
2016-12-17T10:45:25.315Z,7.76
2016-12-17T10:46:35.124Z,7.7
2016-12-17T10:47:44.681Z,7.84
2016-12-17T10:48:54.500Z,7.82
2016-12-17T10:50:04.186Z,7.87
2016-12-17T10:51:14.055Z,7.85
2016-12-17T10:52:23.908Z,7.88
2016-12-17T10:53:33.710Z,8.05
2016-12-17T10:54:43.194Z,8.06
2016-12-17T10:55:52.360Z,8.02
2016-12-17T10:57:01.854Z,8.07
2016-12-17T10:58:11.343Z,7.98
2016-12-17T10:59:21.229Z,8.1
2016-12-17T11:00:30.746Z,8.13
2016-12-17T11:01:40.613Z,8.17
2016-12-17T11:02:50.453Z,8.23
2016-12-17T11:04:00.272Z,8.25
2016-12-17T11:05:09.443Z,8.24
2016-12-17T11:06:19.331Z,8.35
2016-12-17T11:07:28.869Z,8.27
2016-12-17T11:08:38.768Z,8.3
2016-12-17T11:09:48.256Z,8.2
2016-12-17T11:10:57.770Z,8.12
2016-12-17T11:12:07.670Z,8.12
2016-12-17T11:13:17.516Z,7.98
2016-12-17T11:14:27.004Z,7.85
2016-12-17T11:15:36.505Z,7.85
2016-12-17T11:16:45.737Z,7.77
2016-12-17T11:17:55.225Z,7.58
2016-12-17T11:19:04.729Z,7.47
2016-12-17T11:20:13.917Z,7.36
2016-12-17T11:21:23.096Z,7.22
2016-12-17T11:22:32.641Z,7.17
2016-12-17T11:23:42.495Z,7
2016-12-17T11:25:08.552Z,6.81
2016-12-17T11:26:18.160Z,6.57
2016-12-17T11:27:27.019Z,6.34
2016-12-17T11:28:36.531Z,6.26
2016-12-17T11:29:46.425Z,6.06
2016-12-17T11:30:56.323Z,6.06
2016-12-17T11:32:05.813Z,6.06
2016-12-17T11:33:15.719Z,5.96
2016-12-17T11:34:25.216Z,6.01
2016-12-17T11:35:35.045Z,5.98
2016-12-17T11:36:44.830Z,6.09
2016-12-17T11:37:54.019Z,6.09
2016-12-17T11:39:03.513Z,6.19
2016-12-17T11:40:12.993Z,6.16
2016-12-17T11:41:22.560Z,6.17
2016-12-17T11:42:32.090Z,6.08
2016-12-17T11:43:41.639Z,5.99
2016-12-17T11:44:51.170Z,5.72
2016-12-17T11:46:01.071Z,5.83
2016-12-17T11:47:10.885Z,5.67
2016-12-17T11:48:20.674Z,5.56
2016-12-17T11:49:30.206Z,5.41
2016-12-17T11:50:39.823Z,5.29
2016-12-17T11:51:49.635Z,5.1
2016-12-17T11:52:59.427Z,5.03
2016-12-17T11:54:08.938Z,4.8
2016-12-17T11:55:18.744Z,4.75
2016-12-17T11:56:28.538Z,4.68
2016-12-17T11:57:38.040Z,4.57
2016-12-17T11:58:47.967Z,4.52
2016-12-17T11:59:57.464Z,4.46
2016-12-17T12:01:07.251Z,4.38
2016-12-17T12:02:16.463Z,4.34
2016-12-17T12:03:26.000Z,4.18
2016-12-17T12:04:35.983Z,4.22
2016-12-17T12:05:45.521Z,4.2
2016-12-17T12:06:55.543Z,4.05
2016-12-17T12:08:05.376Z,4.09
2016-12-17T12:09:14.870Z,4.01
2016-12-17T12:10:24.375Z,4.01
2016-12-17T12:11:33.560Z,4.01
2016-12-17T12:12:43.450Z,4.01
2016-12-17T12:13:53.237Z,3.97
2016-12-17T12:15:03.089Z,3.9
2016-12-17T12:16:12.509Z,3.97
2016-12-17T12:17:21.684Z,3.85
2016-12-17T12:18:30.891Z,3.83
2016-12-17T12:19:40.399Z,3.82
2016-12-17T12:20:49.662Z,3.86
2016-12-17T12:21:59.463Z,3.83
2016-12-17T12:23:09.289Z,3.86
2016-12-17T12:24:19.067Z,3.86
2016-12-17T12:25:28.871Z,3.8
2016-12-17T12:26:38.348Z,3.75
2016-12-17T12:27:47.287Z,3.87
2016-12-17T12:28:57.155Z,3.83
2016-12-17T12:30:06.700Z,3.9
2016-12-17T12:31:15.890Z,3.93
2016-12-17T12:32:25.935Z,3.9
2016-12-17T12:33:35.423Z,4.03
2016-12-17T12:34:45.231Z,4
2016-12-17T12:35:54.891Z,3.98
2016-12-17T12:37:04.681Z,4.12
2016-12-17T12:38:14.470Z,4.13
2016-12-17T12:39:23.670Z,4.13
2016-12-17T12:40:33.273Z,4.13
2016-12-17T12:41:42.772Z,4.13
2016-12-17T12:42:52.277Z,4.01
2016-12-17T12:44:01.533Z,4.04
2016-12-17T12:45:11.011Z,4.05
2016-12-17T12:46:20.526Z,4
2016-12-17T12:47:30.047Z,3.97
2016-12-17T12:48:39.838Z,3.87
2016-12-17T12:49:48.790Z,3.94
2016-12-17T12:50:57.957Z,3.83
2016-12-17T12:52:07.468Z,3.86
2016-12-17T12:53:16.987Z,3.8
2016-12-17T12:54:26.856Z,3.8
2016-12-17T12:55:36.642Z,3.8
2016-12-17T12:56:46.472Z,3.79
2016-12-17T12:57:55.983Z,3.8
2016-12-17T12:59:05.785Z,3.87
2016-12-17T13:00:15.758Z,3.83
2016-12-17T13:01:24.613Z,3.85
2016-12-17T13:02:33.921Z,3.87
2016-12-17T13:03:43.717Z,3.82
2016-12-17T13:04:52.935Z,3.86
2016-12-17T13:06:02.137Z,3.77
2016-12-17T13:07:11.614Z,3.77
2016-12-17T13:08:21.096Z,3.82
2016-12-17T13:09:31.062Z,3.8
2016-12-17T13:10:40.538Z,3.73
2016-12-17T13:11:50.336Z,3.72
2016-12-17T13:12:59.562Z,3.64
2016-12-17T13:14:09.086Z,3.65
2016-12-17T13:15:18.638Z,3.69
2016-12-17T13:16:28.439Z,3.67
2016-12-17T13:17:38.082Z,3.64
2016-12-17T13:18:47.908Z,3.5
2016-12-17T13:19:57.433Z,3.58
2016-12-17T13:21:06.935Z,3.5
2016-12-17T13:22:16.428Z,3.47
2016-12-17T13:23:25.948Z,3.43
2016-12-17T13:24:35.751Z,3.39
2016-12-17T13:25:45.234Z,3.4
2016-12-17T13:26:55.022Z,3.37
2016-12-17T13:28:04.823Z,3.39
2016-12-17T13:29:14.633Z,3.42
2016-12-17T13:30:24.504Z,3.43
2016-12-17T13:31:34.002Z,3.42
2016-12-17T13:32:43.539Z,3.4
2016-12-17T13:33:53.351Z,3.4
2016-12-17T13:35:02.842Z,3.39
2016-12-17T13:36:12.673Z,3.34
2016-12-17T13:37:22.568Z,3.29
2016-12-17T13:38:32.362Z,3.28
2016-12-17T13:39:41.923Z,3.26
2016-12-17T13:40:51.412Z,3.22
2016-12-17T13:42:00.650Z,3.24
2016-12-17T13:43:10.172Z,3.24
2016-12-17T13:44:19.810Z,3.18
2016-12-17T13:45:29.625Z,3.04
2016-12-17T13:47:11.313Z,3.06
2016-12-17T13:48:21.152Z,3.06
2016-12-17T13:49:30.954Z,3.08
2016-12-17T13:50:40.799Z,3.06
2016-12-17T13:51:50.650Z,3.02
2016-12-17T13:53:00.524Z,3.02
2016-12-17T13:54:10.017Z,3.08
2016-12-17T13:55:19.536Z,2.96
2016-12-17T13:56:29.019Z,2.97
2016-12-17T13:57:38.822Z,3.07
2016-12-17T13:58:48.648Z,2.89
2016-12-17T13:59:58.539Z,2.99
2016-12-17T14:01:07.995Z,2.97
2016-12-17T14:02:17.991Z,2.91
2016-12-17T14:03:27.272Z,2.97
2016-12-17T14:04:37.097Z,2.92
2016-12-17T14:05:46.632Z,2.97
2016-12-17T14:06:56.120Z,2.85
2016-12-17T14:08:05.684Z,2.87
2016-12-17T14:09:15.491Z,2.87
2016-12-17T14:10:24.990Z,2.82
2016-12-17T14:11:34.814Z,2.77
2016-12-17T14:12:44.335Z,2.77
2016-12-17T14:13:54.158Z,2.7
2016-12-17T14:15:03.709Z,2.71
2016-12-17T14:16:13.537Z,2.63
2016-12-17T14:17:23.374Z,2.63
2016-12-17T14:18:32.938Z,2.52
2016-12-17T14:19:42.982Z,2.49
2016-12-17T14:20:52.781Z,2.37
2016-12-17T14:22:02.315Z,2.39
2016-12-17T14:23:11.837Z,2.41
2016-12-17T14:24:21.623Z,2.45
2016-12-17T14:25:31.453Z,2.34
2016-12-17T14:26:41.041Z,2.34
2016-12-17T14:27:50.847Z,2.33
2016-12-17T14:29:00.352Z,2.39
2016-12-17T14:30:10.171Z,2.33
2016-12-17T14:31:19.403Z,2.33
2016-12-17T14:32:28.890Z,2.3
2016-12-17T14:33:38.409Z,2.33
2016-12-17T14:34:48.211Z,2.31
2016-12-17T14:35:58.011Z,2.36
2016-12-17T14:37:07.794Z,2.34
2016-12-17T14:38:17.346Z,2.41
2016-12-17T14:39:27.155Z,2.33
2016-12-17T14:40:37.002Z,2.41
2016-12-17T14:41:45.866Z,2.3
2016-12-17T14:42:55.044Z,2.34
2016-12-17T14:44:04.563Z,2.39
2016-12-17T14:45:14.386Z,2.27
2016-12-17T14:46:24.203Z,2.33
2016-12-17T14:47:33.798Z,2.33
2016-12-17T14:48:43.664Z,2.37
2016-12-17T14:49:53.160Z,2.33
2016-12-17T14:51:03.079Z,2.37
2016-12-17T14:52:12.579Z,2.28
2016-12-17T14:53:22.405Z,2.28
2016-12-17T14:54:31.577Z,2.31
2016-12-17T14:55:41.066Z,2.28
2016-12-17T14:56:50.956Z,2.18
2016-12-17T14:58:00.486Z,2.12
2016-12-17T14:59:10.308Z,2.06
2016-12-17T15:00:19.832Z,2.06
2016-12-17T15:01:29.647Z,1.91
2016-12-17T15:02:39.210Z,1.94
2016-12-17T15:03:48.680Z,1.95
2016-12-17T15:04:58.192Z,1.94
2016-12-17T15:06:07.994Z,1.85
2016-12-17T15:07:17.174Z,1.84
2016-12-17T15:08:26.961Z,1.85
2016-12-17T15:09:36.780Z,1.87
2016-12-17T15:10:46.613Z,1.94
2016-12-17T15:11:56.127Z,1.88